Monday, December 22, 2014
04:54 UTC
  |  Log In   |  Register Free
Airport Search:

De Kalb County Airport
(KGWB)

De Kalb County Airport Diagram
No Airport Diagram Available

FAA data valid effective November 13, 2014 - January 08, 2015 (unless otherwise noted).

 
 
 
 
 
 
 
 
 
 
 
 
 
 

Current Aviation Weather for De Kalb County Airport (KGWB)

The most recent METAR observation for KGWB was updated at: 2115
METAR Summary (Translated METAR)
KGWB
182055Z AUTO 26004KT 10SM OVC013 M01/M05 A3020 RMK AO2
KANQ
182115Z AUTO 26007KT 10SM OVC010 M03/M04 A3018 RMK
(20 nm NW from KGWB)
KFWA
182054Z 26008KT 7SM OVC015 M02/M06 A3022 RMK AO2 SLP242 60000 T10221056 55008
(20.6 nm SW from KGWB)
TAF Summary (Translated TAF)
KFWA
(20.6 nm SW from KGWB)
212159Z 2122/2218 13006KT 6SM HZ BKN250 FM221300 14008KT 5SM BR BKN030
  Airport Weather Conditions for KGWB

 Current Weather at GWB
28° F
Fog/Mist
East winds at 4.6 mph
GWB NOAA Radar

Pressure: 30.15 in
Humidity: 86%
Wind: East at 4.6 MPH (4 KT)
Dew Point: 24.8°F
Visibility: 5.00 mi


Airport Weather Forecast for KGWB

Translated METAR and TAF for KGWB
Translated METAR for KGWB (0455 UTC 22 December 2014)
found at http://aviationweather.gov/adds/metars/
 
METAR text: KGWB 220435Z AUTO 10004KT 5SM HZ CLR M01/M04 A3013 RMK AO2
Conditions at: KGWB (AUBURN DEKALB C , IN, US) observed 0435 UTC 22 December 2014
Temperature: -1.0°C (30°F)
Dewpoint: -4.0°C (25°F) [RH = 80%]
Pressure (altimeter): 30.13 inches Hg (1020.4 mb)
Winds: from the E (100 degrees) at 5 MPH (4 knots; 2.1 m/s)
Visibility: 5 miles (8 km)
Ceiling: at least 12,000 feet AGL
Clouds: sky clear below 12,000 feet AGL
Weather: HZ  (haze)
Translated TAF for KGWB

There is no translated TAF available for this airport

Find All Airport Services Find A Hotel Find A Rental Car Find A Golf Course Find A Restaurant $100 Hamburger



FBO's on the Field
FBO Company Facility Photos Services Transportation Aviation Fuel Prices: Prices include tax
Catering Weather Repair Courtesy Rental Type 100LL JetA JetA+ MOGAS 8087
 
Century Aviation

This FBO has not yet been rated
FS:Shell
Last Updated: Dec-09
Login to update fuel prices
SS:
Contact Century AviationMore FBO Information
 
Add another FBO Facility Photos Catering Weather Repair Courtesy Rental Type 100LL JetA JetA+ MOGAS 8087
Services Transportation Aviation Fuel Prices: Prices include tax


model-print
model-print
model-print
model-print